createdAt,value
2017-06-15T00:00:02.290Z,38.76
2017-06-15T00:01:12.204Z,38.76
2017-06-15T00:02:22.418Z,38.85
2017-06-15T00:03:32.638Z,38.83
2017-06-15T00:04:42.257Z,38.66
2017-06-15T00:05:52.521Z,38.85
2017-06-15T00:07:02.132Z,39.03
2017-06-15T00:08:11.577Z,38.93
2017-06-15T00:09:21.797Z,38.83
2017-06-15T00:10:31.704Z,39.03
2017-06-15T00:11:41.617Z,39.22
2017-06-15T00:12:51.543Z,39.03
2017-06-15T00:14:01.453Z,39.51
2017-06-15T00:15:11.676Z,39.51
2017-06-15T00:16:21.292Z,39.61
2017-06-15T00:17:31.211Z,39.61
2017-06-15T00:18:41.120Z,39.51
2017-06-15T00:19:51.486Z,39.41
2017-06-15T00:21:01.392Z,39.32
2017-06-15T00:22:11.323Z,39.12
2017-06-15T00:23:20.937Z,39.32
2017-06-15T00:24:30.564Z,39.12
2017-06-15T00:25:41.132Z,39.22
2017-06-15T00:26:51.035Z,39.03
2017-06-15T00:28:01.275Z,39.12
2017-06-15T00:29:10.563Z,39.22
2017-06-15T00:30:20.498Z,39.03
2017-06-15T00:31:30.557Z,39.12
2017-06-15T00:32:40.459Z,39.22
2017-06-15T00:33:50.675Z,39.12
2017-06-15T00:35:00.907Z,39.22
2017-06-15T00:36:11.118Z,39.12
2017-06-15T00:37:21.179Z,39.32
2017-06-15T00:38:31.100Z,39.12
2017-06-15T00:39:41.309Z,39.03
2017-06-15T00:40:51.223Z,39.22
2017-06-15T00:42:01.433Z,39.41
2017-06-15T00:43:11.685Z,39.8
2017-06-15T00:44:21.285Z,39.7
2017-06-15T00:45:31.495Z,39.7
2017-06-15T00:46:41.408Z,39.61
2017-06-15T00:47:51.329Z,39.61
2017-06-15T00:49:01.694Z,39.7
2017-06-15T00:50:11.287Z,39.61
2017-06-15T00:51:21.186Z,39.61
2017-06-15T00:52:31.106Z,39.51
2017-06-15T00:53:40.716Z,39.51
2017-06-15T00:54:50.770Z,39.41
2017-06-15T00:56:00.681Z,39.51
2017-06-15T00:57:10.593Z,39.41
2017-06-15T00:58:20.823Z,39.51
2017-06-15T00:59:30.750Z,39.8
2017-06-15T01:00:41.120Z,39.7
2017-06-15T01:01:50.725Z,39.8
2017-06-15T01:03:00.628Z,39.7
2017-06-15T01:04:10.537Z,39.8
2017-06-15T01:05:20.779Z,39.7
2017-06-15T01:06:30.405Z,39.88
2017-06-15T01:07:40.614Z,39.9
2017-06-15T01:08:50.532Z,40.07
2017-06-15T01:10:00.453Z,39.9
2017-06-15T01:11:09.749Z,39.9
2017-06-15T01:12:20.092Z,39.9
2017-06-15T01:13:29.997Z,40
2017-06-15T01:14:39.597Z,40.07
2017-06-15T01:15:49.219Z,40.07
2017-06-15T01:16:59.148Z,39.88
2017-06-15T01:18:09.149Z,40.07
2017-06-15T01:19:19.064Z,40.26
2017-06-15T01:20:28.971Z,40.26
2017-06-15T01:21:38.889Z,40.07
2017-06-15T01:22:49.118Z,40.17
2017-06-15T01:23:59.047Z,40.17
2017-06-15T01:25:09.032Z,40.75
2017-06-15T01:26:18.930Z,40.36
2017-06-15T01:27:28.840Z,40.65
2017-06-15T01:28:38.431Z,40.56
2017-06-15T01:29:48.643Z,40.65
2017-06-15T01:30:58.549Z,40.65
2017-06-15T01:32:07.857Z,40.75
2017-06-15T01:33:18.091Z,40.75
2017-06-15T01:34:28.309Z,40.36
2017-06-15T01:35:38.262Z,40.75
2017-06-15T01:36:48.170Z,40.56
2017-06-15T01:37:58.768Z,40.56
2017-06-15T01:39:08.690Z,40.46
2017-06-15T01:40:18.898Z,40.46
2017-06-15T01:41:28.804Z,40.46
2017-06-15T01:42:38.783Z,40.46
2017-06-15T01:43:48.691Z,40.46
2017-06-15T01:44:58.918Z,40.46
2017-06-15T01:46:07.902Z,40.46
2017-06-15T01:47:18.132Z,40.36
2017-06-15T01:48:28.037Z,40.56
2017-06-15T01:49:42.674Z,40.46
2017-06-15T01:50:51.966Z,40.46
2017-06-15T01:52:02.203Z,40.46
2017-06-15T01:53:12.266Z,40.46
2017-06-15T01:54:21.876Z,40.84
2017-06-15T01:55:31.797Z,40.46
2017-06-15T01:56:42.018Z,40.84
2017-06-15T01:57:51.618Z,40.94
2017-06-15T01:59:01.369Z,40.94
2017-06-15T02:00:11.290Z,40.84
2017-06-15T02:01:21.213Z,40.92
2017-06-15T02:02:31.431Z,40.84
2017-06-15T02:03:41.330Z,40.94
2017-06-15T02:04:51.357Z,40.65
2017-06-15T02:06:01.589Z,40.75
2017-06-15T02:07:10.885Z,40.56
2017-06-15T02:08:20.187Z,40.56
2017-06-15T02:09:30.401Z,40.73
2017-06-15T02:10:40.763Z,40.73
2017-06-15T02:11:50.684Z,40.83
2017-06-15T02:13:00.589Z,40.75
2017-06-15T02:14:10.817Z,40.63
2017-06-15T02:15:20.730Z,40.73
2017-06-15T02:16:31.109Z,40.73
2017-06-15T02:17:41.324Z,40.83
2017-06-15T02:18:51.236Z,40.63
2017-06-15T02:20:01.454Z,40.83
2017-06-15T02:21:11.068Z,40.63
2017-06-15T02:22:21.125Z,40.63
2017-06-15T02:23:31.033Z,40.83
2017-06-15T02:24:41.258Z,40.73
2017-06-15T02:25:51.176Z,40.73
2017-06-15T02:27:01.087Z,40.83
2017-06-15T02:28:11.151Z,40.83
2017-06-15T02:29:21.364Z,40.73
2017-06-15T02:30:31.580Z,41.02
2017-06-15T02:31:40.873Z,40.83
2017-06-15T02:32:51.094Z,41.11
2017-06-15T02:34:01.462Z,41.11
2017-06-15T02:35:11.372Z,40.92
2017-06-15T02:36:20.975Z,41.31
2017-06-15T02:37:30.584Z,41.21
2017-06-15T02:38:40.805Z,41.41
2017-06-15T02:39:51.193Z,41.31
2017-06-15T02:41:01.106Z,41.31
2017-06-15T02:42:11.326Z,41.5
2017-06-15T02:43:21.240Z,41.48
2017-06-15T02:44:31.163Z,41.5
2017-06-15T02:45:41.525Z,41.67
2017-06-15T02:46:50.825Z,41.39
2017-06-15T02:48:00.724Z,41.41
2017-06-15T02:49:10.624Z,41.48
2017-06-15T02:50:20.830Z,41.5
2017-06-15T02:51:31.063Z,41.67
2017-06-15T02:52:40.971Z,41.67
2017-06-15T02:53:51.184Z,42.08
2017-06-15T02:55:01.085Z,41.99
2017-06-15T02:56:10.675Z,41.97
2017-06-15T02:57:20.286Z,41.89
2017-06-15T02:58:30.513Z,41.77
2017-06-15T02:59:40.727Z,41.77
2017-06-15T03:00:50.334Z,41.67
2017-06-15T03:02:00.548Z,41.67
2017-06-15T03:03:10.861Z,41.97
2017-06-15T03:04:21.077Z,42.07
2017-06-15T03:05:30.983Z,42.07
2017-06-15T03:06:41.188Z,42.07
2017-06-15T03:07:50.787Z,41.97
2017-06-15T03:09:00.525Z,41.87
2017-06-15T03:10:09.819Z,42.07
2017-06-15T03:11:19.422Z,41.97
2017-06-15T03:12:29.639Z,41.77
2017-06-15T03:13:39.582Z,41.77
2017-06-15T03:14:48.902Z,41.97
2017-06-15T03:15:59.121Z,42.07
2017-06-15T03:17:08.726Z,42.07
2017-06-15T03:18:17.711Z,42.45
2017-06-15T03:19:27.312Z,41.77
2017-06-15T03:20:36.961Z,42.16
2017-06-15T03:21:46.875Z,41.67
2017-06-15T03:22:56.471Z,42.07
2017-06-15T03:24:06.375Z,41.29
2017-06-15T03:25:15.975Z,41.31
2017-06-15T03:26:25.408Z,41.11
2017-06-15T03:27:34.696Z,41.21
2017-06-15T03:28:44.906Z,40.83
2017-06-15T03:29:55.490Z,40.92
2017-06-15T03:31:05.398Z,40.73
2017-06-15T03:32:15.760Z,40.83
2017-06-15T03:33:25.992Z,40.73
2017-06-15T03:34:35.600Z,40.83
2017-06-15T03:35:45.194Z,40.84
2017-06-15T03:36:55.398Z,40.94
2017-06-15T03:38:05.618Z,40.75
2017-06-15T03:39:15.843Z,40.84
2017-06-15T03:40:25.770Z,40.65
2017-06-15T03:41:35.067Z,40.75
2017-06-15T03:42:45.287Z,40.73
2017-06-15T03:43:55.200Z,41.02
2017-06-15T03:45:05.105Z,40.73
2017-06-15T03:46:14.710Z,40.83
2017-06-15T03:47:24.629Z,40.73
2017-06-15T03:48:33.917Z,40.92
2017-06-15T03:49:43.872Z,40.73
2017-06-15T03:50:53.777Z,40.84
2017-06-15T03:52:03.085Z,40.75
2017-06-15T03:53:13.019Z,40.94
2017-06-15T03:54:22.609Z,40.46
2017-06-15T03:55:32.972Z,40.46
2017-06-15T03:56:43.183Z,40.56
2017-06-15T03:57:53.394Z,40.75
2017-06-15T03:59:03.304Z,40.17
2017-06-15T04:00:13.524Z,39.97
2017-06-15T04:01:23.849Z,40.07
2017-06-15T04:02:33.805Z,40.09
2017-06-15T04:03:43.732Z,39.9
2017-06-15T04:04:53.027Z,39.9
2017-06-15T04:06:02.624Z,39.7
2017-06-15T04:07:12.984Z,39.7
2017-06-15T04:08:23.197Z,39.51
2017-06-15T04:09:32.791Z,39.61
2017-06-15T04:10:42.390Z,39.7
2017-06-15T04:11:52.606Z,39.61
2017-06-15T04:13:02.929Z,39.7
2017-06-15T04:14:12.546Z,39.7
2017-06-15T04:15:22.449Z,39.7
2017-06-15T04:16:32.047Z,39.12
2017-06-15T04:17:41.951Z,39.24
2017-06-15T04:18:51.867Z,39.12
2017-06-15T04:20:02.091Z,39.24
2017-06-15T04:21:12.307Z,39.24
2017-06-15T04:22:21.908Z,39.24
2017-06-15T04:23:31.524Z,39.04
2017-06-15T04:24:41.488Z,39.62
2017-06-15T04:25:51.709Z,39.43
2017-06-15T04:27:01.621Z,39.62
2017-06-15T04:28:11.834Z,39.62
2017-06-15T04:29:21.750Z,39.43
2017-06-15T04:30:32.125Z,39.43
2017-06-15T04:31:42.380Z,39.14
2017-06-15T04:32:52.288Z,39.14
2017-06-15T04:34:01.907Z,38.95
2017-06-15T04:35:11.818Z,38.76
2017-06-15T04:36:22.086Z,39.04
2017-06-15T04:37:31.998Z,38.78
2017-06-15T04:38:41.920Z,38.87
2017-06-15T04:39:51.830Z,38.87
2017-06-15T04:41:01.742Z,38.78
2017-06-15T04:42:12.263Z,38.68
2017-06-15T04:43:21.877Z,38.68
2017-06-15T04:44:32.100Z,38.68
2017-06-15T04:45:42.323Z,38.58
2017-06-15T04:46:52.235Z,38.78
2017-06-15T04:48:02.609Z,38.68
2017-06-15T04:49:12.219Z,38.58
2017-06-15T04:50:22.147Z,38.39
2017-06-15T04:51:32.060Z,38.58
2017-06-15T04:52:42.004Z,38.58
2017-06-15T04:53:51.152Z,38.68
2017-06-15T04:55:01.386Z,38.48
2017-06-15T04:56:10.694Z,38.29
2017-06-15T04:57:20.619Z,38.48
2017-06-15T04:58:30.539Z,38.48
2017-06-15T04:59:40.861Z,38.39
2017-06-15T05:00:50.472Z,38.5
2017-06-15T05:01:59.767Z,38.5
2017-06-15T05:03:09.386Z,38.68
2017-06-15T05:04:19.299Z,38.6
2017-06-15T05:05:29.674Z,38.7
2017-06-15T05:06:39.901Z,38.5
2017-06-15T05:07:50.127Z,38.6
2017-06-15T05:09:00.047Z,38.6
2017-06-15T05:10:09.661Z,38.5
2017-06-15T05:11:19.455Z,38.6
2017-06-15T05:12:28.758Z,38.5
2017-06-15T05:13:38.361Z,38.4
2017-06-15T05:14:47.974Z,38.21
2017-06-15T05:15:58.198Z,38.12
2017-06-15T05:17:08.259Z,37.94
2017-06-15T05:18:18.180Z,38.13
2017-06-15T05:19:28.408Z,37.94
2017-06-15T05:20:38.324Z,38.13
2017-06-15T05:21:48.544Z,38.23
2017-06-15T05:22:58.989Z,37.55
2017-06-15T05:24:09.225Z,37.08
2017-06-15T05:25:19.156Z,36.71
2017-06-15T05:26:28.776Z,35.86
2017-06-15T05:27:38.690Z,35.39
2017-06-15T05:28:48.960Z,34.7
2017-06-15T05:29:59.197Z,34.53
2017-06-15T05:31:09.119Z,34.35
2017-06-15T05:32:19.049Z,34.06
2017-06-15T05:33:29.274Z,33.49
2017-06-15T05:34:38.735Z,33.12
2017-06-15T05:35:48.349Z,32.73
2017-06-15T05:36:58.270Z,32.45
2017-06-15T05:38:08.504Z,31.98
2017-06-15T05:39:18.428Z,31.79
2017-06-15T05:40:27.740Z,31.51
2017-06-15T05:41:37.970Z,31.33
2017-06-15T05:42:47.582Z,31.13
2017-06-15T05:43:57.807Z,30.96
2017-06-15T05:45:08.034Z,30.47
2017-06-15T05:46:18.441Z,30.29
2017-06-15T05:47:28.362Z,29.9
2017-06-15T05:48:38.031Z,29.71
2017-06-15T05:49:47.351Z,29.14
2017-06-15T05:50:57.281Z,30.02
2017-06-15T05:52:07.220Z,29.44
2017-06-15T05:53:16.831Z,29.35
2017-06-15T05:54:27.055Z,29.06
2017-06-15T05:55:36.706Z,29.07
2017-06-15T05:56:46.322Z,28.78
2017-06-15T05:57:56.346Z,28.2
2017-06-15T05:59:06.271Z,28.3
2017-06-15T06:00:16.507Z,27.83
2017-06-15T06:01:26.432Z,28.03
2017-06-15T06:02:36.657Z,27.64
2017-06-15T06:03:46.880Z,27.74
2017-06-15T06:04:56.824Z,27.36
2017-06-15T06:06:06.746Z,27.36
2017-06-15T06:07:16.975Z,26.98
2017-06-15T06:08:26.606Z,27.18
2017-06-15T06:09:36.681Z,26.8
2017-06-15T06:10:46.343Z,26.8
2017-06-15T06:11:56.261Z,26.23
2017-06-15T06:13:05.564Z,26.42
2017-06-15T06:14:15.478Z,26.72
2017-06-15T06:15:25.237Z,26.73
2017-06-15T06:16:35.154Z,26.53
2017-06-15T06:17:45.376Z,26.32
2017-06-15T06:18:54.987Z,26.63
2017-06-15T06:20:04.604Z,26.04
2017-06-15T06:21:14.673Z,25.76
2017-06-15T06:22:24.895Z,25.67
2017-06-15T06:23:35.122Z,25.57
2017-06-15T06:24:45.037Z,25.57
2017-06-15T06:25:54.360Z,25.29
2017-06-15T06:27:04.382Z,25.49
2017-06-15T06:28:14.006Z,25.39
2017-06-15T06:29:23.930Z,25.09
2017-06-15T06:30:33.851Z,25.2
2017-06-15T06:31:44.084Z,25.4
2017-06-15T06:32:54.318Z,25.5
2017-06-15T06:34:04.228Z,25.68
2017-06-15T06:35:14.148Z,25.5
2017-06-15T06:36:23.766Z,25.5
2017-06-15T06:37:33.088Z,25.6
2017-06-15T06:38:43.318Z,25.5
2017-06-15T06:39:53.229Z,25.7
2017-06-15T06:41:02.838Z,25.7
2017-06-15T06:42:12.456Z,25.1
2017-06-15T06:43:22.533Z,25.32
2017-06-15T06:44:32.454Z,25.12
2017-06-15T06:45:42.381Z,24.64
2017-06-15T06:46:52.295Z,24.24
2017-06-15T06:48:02.219Z,24.75
2017-06-15T06:49:12.439Z,24.95
2017-06-15T06:50:22.061Z,24.93
2017-06-15T06:51:31.987Z,24.55
2017-06-15T06:52:41.597Z,24.75
2017-06-15T06:53:51.522Z,24.55
2017-06-15T06:55:01.598Z,24.35
2017-06-15T06:56:10.907Z,24.66
2017-06-15T06:57:20.859Z,25.24
2017-06-15T06:58:30.783Z,25.62
2017-06-15T06:59:40.999Z,25.71
2017-06-15T07:00:51.088Z,25.81
2017-06-15T07:02:01.026Z,25.81
2017-06-15T07:03:10.944Z,25.42
2017-06-15T07:04:20.873Z,25.43
2017-06-15T07:05:31.096Z,25.33
2017-06-15T07:06:41.077Z,24.95
2017-06-15T07:07:50.998Z,24.95
2017-06-15T07:09:01.232Z,25.33
2017-06-15T07:10:11.156Z,25.43
2017-06-15T07:11:20.161Z,25.72
2017-06-15T07:12:30.241Z,25.9
2017-06-15T07:13:40.491Z,26.1
2017-06-15T07:14:50.408Z,26.01
2017-06-15T07:16:00.035Z,26.01
2017-06-15T07:17:09.646Z,26.1
2017-06-15T07:18:19.712Z,26.01
2017-06-15T07:19:29.634Z,26.1
2017-06-15T07:20:39.548Z,26.1
2017-06-15T07:21:49.474Z,26.2
2017-06-15T07:22:59.399Z,26.3
2017-06-15T07:24:09.476Z,26.5
2017-06-15T07:25:19.088Z,26.39
2017-06-15T07:26:29.045Z,26.39
2017-06-15T07:27:38.650Z,26.39
2017-06-15T07:28:48.883Z,26.4
2017-06-15T07:29:58.500Z,26.1
2017-06-15T07:31:08.730Z,25.9
2017-06-15T07:32:18.048Z,25.72
2017-06-15T07:33:28.274Z,25.62
2017-06-15T07:34:38.506Z,25.52
2017-06-15T07:35:48.733Z,25.54
2017-06-15T07:36:58.685Z,25.44
2017-06-15T07:38:08.918Z,25.44
2017-06-15T07:39:18.842Z,25.34
2017-06-15T07:40:28.463Z,24.85
2017-06-15T07:41:38.407Z,25.05
2017-06-15T07:42:48.024Z,25.15
2017-06-15T07:43:57.946Z,24.57
2017-06-15T07:45:07.558Z,24.18
2017-06-15T07:46:17.170Z,24.57
2017-06-15T07:47:27.446Z,24.09
2017-06-15T07:48:37.679Z,23.99
2017-06-15T07:49:47.610Z,24.09
2017-06-15T07:50:57.826Z,23.91
2017-06-15T07:52:08.056Z,24.19
2017-06-15T07:53:17.681Z,24.49
2017-06-15T07:54:27.603Z,25.07
2017-06-15T07:55:37.536Z,25.07
2017-06-15T07:56:47.457Z,25.07
2017-06-15T07:57:57.380Z,25.27
2017-06-15T07:59:07.314Z,25.05
2017-06-15T08:00:17.246Z,25.65
2017-06-15T08:01:26.865Z,25.63
2017-06-15T08:02:36.792Z,25.54
2017-06-15T08:03:46.725Z,25.65
2017-06-15T08:04:56.956Z,25.74
2017-06-15T08:06:07.181Z,25.84
2017-06-15T08:07:17.096Z,25.83
2017-06-15T08:08:26.398Z,26.23
2017-06-15T08:09:35.714Z,26.21
2017-06-15T08:10:46.049Z,26.41
2017-06-15T08:11:56.288Z,26.89
2017-06-15T08:13:05.907Z,27.09
2017-06-15T08:14:15.839Z,27.08
2017-06-15T08:15:26.079Z,26.98
2017-06-15T08:16:35.848Z,27.37
2017-06-15T08:17:45.472Z,27.45
2017-06-15T08:18:55.389Z,27.26
2017-06-15T08:20:05.310Z,27.17
2017-06-15T08:21:14.930Z,27.08
2017-06-15T08:22:25.161Z,26.88
2017-06-15T08:23:35.095Z,26.4
2017-06-15T08:24:45.011Z,26.2
2017-06-15T08:25:55.235Z,26.12
2017-06-15T08:27:05.160Z,26.21
2017-06-15T08:28:15.542Z,26.21
2017-06-15T08:29:25.152Z,26.12
2017-06-15T08:30:34.771Z,26.12
2017-06-15T08:31:44.698Z,25.92
2017-06-15T08:32:54.323Z,25.73
2017-06-15T08:34:04.726Z,25.14
2017-06-15T08:35:14.644Z,25.05
2017-06-15T08:36:24.566Z,24.86
2017-06-15T08:37:34.795Z,25.07
2017-06-15T08:38:44.419Z,25.07
2017-06-15T08:39:54.649Z,25.55
2017-06-15T08:41:04.280Z,26.04
2017-06-15T08:42:14.202Z,26.32
2017-06-15T08:43:23.830Z,26.81
2017-06-15T08:44:33.466Z,27.09
2017-06-15T08:45:43.441Z,27.57
2017-06-15T08:46:53.670Z,28.14
2017-06-15T08:48:03.593Z,28.42
2017-06-15T08:49:13.816Z,29
2017-06-15T08:50:23.757Z,29.1
2017-06-15T08:51:33.988Z,29.58
2017-06-15T08:52:43.601Z,29.47
2017-06-15T08:53:53.534Z,30.25
2017-06-15T08:55:03.457Z,30.63
2017-06-15T08:56:13.392Z,30.71
2017-06-15T08:57:23.331Z,31.09
2017-06-15T08:58:33.248Z,31.19
2017-06-15T08:59:42.862Z,31.76
2017-06-15T09:00:52.788Z,31.76
2017-06-15T09:02:02.407Z,32.04
2017-06-15T09:03:12.426Z,32.23
2017-06-15T09:04:22.645Z,32.42
2017-06-15T09:05:32.871Z,32.61
2017-06-15T09:06:42.786Z,32.79
2017-06-15T09:07:53.045Z,32.99
2017-06-15T09:09:03.388Z,33.26
2017-06-15T09:10:13.308Z,33.45
2017-06-15T09:11:23.279Z,33.94
2017-06-15T09:12:32.598Z,33.94
2017-06-15T09:13:42.572Z,33.82
2017-06-15T09:14:52.657Z,34.11
2017-06-15T09:16:02.586Z,34.41
2017-06-15T09:17:12.815Z,34.5
2017-06-15T09:18:23.048Z,34.29
2017-06-15T09:19:33.274Z,34.29
2017-06-15T09:20:43.195Z,34.68
2017-06-15T09:21:52.816Z,34.68
2017-06-15T09:23:03.046Z,34.77
2017-06-15T09:24:12.969Z,34.96
2017-06-15T09:25:22.887Z,34.77
2017-06-15T09:26:33.222Z,34.96
2017-06-15T09:27:43.142Z,35.06
2017-06-15T09:28:52.768Z,35.24
2017-06-15T09:30:02.382Z,35.53
2017-06-15T09:31:12.325Z,35.53
2017-06-15T09:32:22.401Z,35.41
2017-06-15T09:33:31.749Z,35.51
2017-06-15T09:34:41.704Z,35.51
2017-06-15T09:35:51.653Z,35.61
2017-06-15T09:37:01.342Z,35.61
2017-06-15T09:38:11.104Z,35.71
2017-06-15T09:39:21.327Z,35.88
2017-06-15T09:40:31.816Z,35.69
2017-06-15T09:41:41.754Z,35.78
2017-06-15T09:42:51.696Z,35.78
2017-06-15T09:44:02.274Z,35.88
2017-06-15T09:45:12.189Z,35.98
2017-06-15T09:46:22.424Z,36.18
2017-06-15T09:47:32.352Z,36.16
2017-06-15T09:48:41.965Z,35.86
2017-06-15T09:49:52.353Z,35.86
2017-06-15T09:51:01.966Z,35.77
2017-06-15T09:52:12.193Z,35.77
2017-06-15T09:53:22.430Z,35.86
2017-06-15T09:54:32.343Z,35.86
2017-06-15T09:55:41.746Z,35.67
2017-06-15T09:56:51.377Z,35.67
2017-06-15T09:58:01.626Z,35.86
2017-06-15T09:59:11.563Z,35.77
2017-06-15T10:00:21.510Z,35.77
2017-06-15T10:01:31.490Z,35.86
2017-06-15T10:02:41.430Z,35.77
2017-06-15T10:03:51.047Z,35.77
2017-06-15T10:05:00.985Z,35.85
2017-06-15T10:06:10.949Z,35.85
2017-06-15T10:07:20.359Z,35.86
2017-06-15T10:08:30.443Z,35.75
2017-06-15T10:09:39.817Z,35.86
2017-06-15T10:10:49.455Z,35.94
2017-06-15T10:11:59.376Z,35.85
2017-06-15T10:13:09.758Z,35.75
2017-06-15T10:14:19.666Z,36.14
2017-06-15T10:15:29.732Z,36.04
2017-06-15T10:16:39.657Z,36.14
2017-06-15T10:17:49.885Z,36.14
2017-06-15T10:19:00.333Z,36.41
2017-06-15T10:20:10.303Z,36.12
2017-06-15T10:21:20.524Z,36.22
2017-06-15T10:22:30.144Z,36.12
2017-06-15T10:23:40.071Z,36.51
2017-06-15T10:24:50.413Z,36.41
2017-06-15T10:26:00.399Z,36.32
2017-06-15T10:27:10.025Z,36.41
2017-06-15T10:28:19.399Z,36.12
2017-06-15T10:29:29.650Z,36.22
2017-06-15T10:30:40.268Z,36.41
2017-06-15T10:31:50.205Z,36.32
2017-06-15T10:33:00.459Z,36.22
2017-06-15T10:34:10.701Z,36.12
2017-06-15T10:35:20.346Z,36.02
2017-06-15T10:36:30.333Z,36.02
2017-06-15T10:37:40.278Z,36.02
2017-06-15T10:38:49.887Z,35.93
2017-06-15T10:39:59.808Z,35.63
2017-06-15T10:41:10.040Z,35.83
2017-06-15T10:42:20.107Z,35.63
2017-06-15T10:43:30.050Z,35.73
2017-06-15T10:44:39.991Z,35.73
2017-06-15T10:45:49.928Z,35.63
2017-06-15T10:47:00.165Z,35.93
2017-06-15T10:48:09.884Z,35.83
2017-06-15T10:49:19.245Z,35.73
2017-06-15T10:50:29.195Z,35.53
2017-06-15T10:51:39.144Z,35.53
2017-06-15T10:52:49.077Z,35.83
2017-06-15T10:53:59.472Z,35.93
2017-06-15T10:55:09.712Z,35.63
2017-06-15T10:56:19.638Z,35.93
2017-06-15T10:57:29.569Z,35.93
2017-06-15T10:58:39.794Z,35.83
2017-06-15T10:59:49.549Z,35.71
2017-06-15T11:00:59.161Z,35.91
2017-06-15T11:02:09.084Z,35.91
2017-06-15T11:03:18.390Z,35.91
2017-06-15T11:04:28.314Z,36.2
2017-06-15T11:05:38.684Z,36.2
2017-06-15T11:06:47.990Z,36
2017-06-15T11:07:57.928Z,36
2017-06-15T11:09:08.159Z,36.1
2017-06-15T11:10:17.765Z,36.2
2017-06-15T11:11:27.542Z,36.1
2017-06-15T11:12:37.457Z,36.2
2017-06-15T11:13:47.062Z,36.3
2017-06-15T11:14:56.983Z,36.2
2017-06-15T11:16:07.213Z,36.18
2017-06-15T11:17:16.823Z,36.18
2017-06-15T11:18:26.741Z,36.18
2017-06-15T11:19:36.966Z,36.08
2017-06-15T11:20:46.886Z,36.28
2017-06-15T11:21:56.822Z,36.18
2017-06-15T11:23:06.896Z,36.18
2017-06-15T11:24:17.122Z,36.28
2017-06-15T11:25:27.050Z,36.28
2017-06-15T11:26:36.969Z,36.18
2017-06-15T11:27:47.213Z,36.08
2017-06-15T11:28:57.615Z,35.99
2017-06-15T11:30:07.583Z,36.28
2017-06-15T11:31:17.531Z,36.38
2017-06-15T11:32:28.130Z,36.38
2017-06-15T11:33:38.370Z,36.18
2017-06-15T11:34:48.096Z,36.18
2017-06-15T11:35:58.376Z,36.08
2017-06-15T11:37:07.999Z,36.18
2017-06-15T11:38:18.237Z,36.28
2017-06-15T11:39:27.564Z,36.28
2017-06-15T11:40:37.546Z,36.28
2017-06-15T11:41:46.866Z,36.08
2017-06-15T11:42:56.789Z,36.08
2017-06-15T11:44:07.016Z,35.99
2017-06-15T11:45:16.641Z,36.08
2017-06-15T11:46:26.418Z,36.08
2017-06-15T11:47:35.721Z,35.89
2017-06-15T11:48:45.635Z,35.7
2017-06-15T11:49:55.270Z,35.89
2017-06-15T11:51:04.901Z,35.8
2017-06-15T11:52:14.528Z,35.8
2017-06-15T11:53:24.440Z,35.8
2017-06-15T11:54:34.354Z,35.7
2017-06-15T11:55:44.950Z,35.8
2017-06-15T11:56:55.198Z,35.7
2017-06-15T11:58:05.594Z,35.8
2017-06-15T11:59:15.826Z,35.7
2017-06-15T12:00:25.735Z,35.61
2017-06-15T12:01:35.351Z,35.41
2017-06-15T12:02:44.982Z,35.31
2017-06-15T12:03:54.463Z,35.5
2017-06-15T12:05:04.452Z,35.6
2017-06-15T12:06:14.675Z,35.61
2017-06-15T12:07:24.611Z,35.41
2017-06-15T12:08:33.611Z,35.52
2017-06-15T12:09:43.577Z,35.52
2017-06-15T12:10:53.186Z,35.41
2017-06-15T12:12:03.101Z,35.52
2017-06-15T12:13:13.019Z,35.42
2017-06-15T12:14:23.240Z,35.42
2017-06-15T12:15:33.163Z,35.41
2017-06-15T12:16:42.795Z,35.52
2017-06-15T12:17:52.724Z,35.5
2017-06-15T12:19:02.667Z,35.52
2017-06-15T12:20:12.279Z,35.42
2017-06-15T12:21:22.246Z,35.5
2017-06-15T12:22:32.170Z,35.5
2017-06-15T12:23:42.110Z,35.41
2017-06-15T12:24:52.342Z,35.52
2017-06-15T12:26:02.280Z,35.52
2017-06-15T12:27:12.191Z,35.5
2017-06-15T12:28:21.822Z,35.7
2017-06-15T12:29:31.742Z,35.5
2017-06-15T12:30:41.969Z,35.6
2017-06-15T12:31:51.287Z,35.7
2017-06-15T12:33:01.050Z,35.7
2017-06-15T12:34:10.669Z,35.7
2017-06-15T12:35:20.596Z,35.6
2017-06-15T12:36:30.522Z,35.8
2017-06-15T12:37:40.131Z,35.7
2017-06-15T12:38:49.848Z,35.6
2017-06-15T12:39:59.459Z,35.5
2017-06-15T12:41:09.393Z,35.5
2017-06-15T12:42:19.325Z,35.41
2017-06-15T12:43:28.931Z,35.5
2017-06-15T12:44:38.600Z,35.5
2017-06-15T12:45:48.822Z,35.52
2017-06-15T12:46:58.746Z,35.41
2017-06-15T12:48:08.979Z,35.41
2017-06-15T12:49:18.899Z,35.5
2017-06-15T12:50:29.161Z,35.21
2017-06-15T12:51:39.391Z,35.31
2017-06-15T12:52:49.325Z,35.31
2017-06-15T12:53:59.253Z,35.21
2017-06-15T12:55:09.173Z,35.33
2017-06-15T12:56:19.133Z,35.33
2017-06-15T12:57:29.052Z,35.33
2017-06-15T12:58:38.351Z,35.31
2017-06-15T12:59:48.577Z,35.31
2017-06-15T13:00:58.820Z,35.5
2017-06-15T13:02:08.904Z,35.41
2017-06-15T13:03:19.152Z,35.41
2017-06-15T13:04:29.379Z,35.31
2017-06-15T13:05:38.998Z,35.31
2017-06-15T13:06:49.217Z,35.42
2017-06-15T13:07:58.951Z,35.42
2017-06-15T13:09:08.573Z,35.33
2017-06-15T13:10:18.186Z,35.31
2017-06-15T13:11:27.490Z,35.31
2017-06-15T13:12:37.426Z,35.31
2017-06-15T13:13:47.518Z,35.42
2017-06-15T13:14:56.819Z,35.31
2017-06-15T13:16:07.064Z,35.31
2017-06-15T13:17:16.703Z,35.42
2017-06-15T13:18:26.922Z,35.42
2017-06-15T13:19:36.609Z,35.5
2017-06-15T13:20:46.535Z,35.5
2017-06-15T13:21:56.773Z,35.52
2017-06-15T13:23:06.395Z,35.5
2017-06-15T13:24:16.022Z,35.5
2017-06-15T13:25:25.340Z,35.61
2017-06-15T13:26:35.278Z,35.52
2017-06-15T13:27:44.897Z,35.61
2017-06-15T13:28:54.837Z,35.5
2017-06-15T13:30:04.468Z,35.5
2017-06-15T13:31:14.402Z,35.31
2017-06-15T13:32:24.656Z,35.41
2017-06-15T13:33:34.899Z,35.31
2017-06-15T13:34:45.132Z,35.41
2017-06-15T13:35:55.054Z,35.21
2017-06-15T13:37:05.641Z,35.31
2017-06-15T13:38:15.258Z,35.41
2017-06-15T13:39:24.871Z,35.5
2017-06-15T13:40:34.498Z,35.41
2017-06-15T13:41:44.727Z,35.6
2017-06-15T13:42:55.111Z,35.5
2017-06-15T13:44:05.047Z,35.5
2017-06-15T13:45:15.293Z,35.31
2017-06-15T13:46:24.930Z,35.41
2017-06-15T13:47:34.544Z,35.41
2017-06-15T13:48:45.125Z,35.41
2017-06-15T13:49:55.362Z,35.41
2017-06-15T13:51:05.284Z,35.5
2017-06-15T13:52:15.247Z,35.5
2017-06-15T13:53:25.486Z,35.6
2017-06-15T13:54:34.327Z,35.6
2017-06-15T13:55:44.285Z,35.5
2017-06-15T13:56:54.546Z,35.5
2017-06-15T13:58:04.564Z,35.5
2017-06-15T13:59:14.815Z,35.5
2017-06-15T14:00:25.122Z,35.31
2017-06-15T14:01:35.354Z,35.6
2017-06-15T14:02:45.311Z,35.41
2017-06-15T14:03:55.562Z,35.5
2017-06-15T14:05:05.174Z,35.8
2017-06-15T14:06:15.243Z,35.7
2017-06-15T14:07:25.173Z,35.8
2017-06-15T14:08:34.480Z,35.89
2017-06-15T14:09:44.725Z,35.8
2017-06-15T14:10:54.665Z,35.6
2017-06-15T14:12:04.755Z,35.89
2017-06-15T14:13:14.382Z,35.78
2017-06-15T14:14:24.353Z,35.58
2017-06-15T14:15:34.280Z,35.7
2017-06-15T14:16:43.904Z,35.88
2017-06-15T14:17:54.470Z,35.88
2017-06-15T14:19:04.083Z,35.88
2017-06-15T14:20:13.395Z,35.78
2017-06-15T14:21:23.039Z,36.16
2017-06-15T14:22:33.284Z,36.07
2017-06-15T14:23:43.277Z,36.07
2017-06-15T14:24:52.633Z,36.07
2017-06-15T14:26:02.588Z,36.26
2017-06-15T14:27:12.530Z,36.16
2017-06-15T14:28:22.183Z,36.26
2017-06-15T14:29:31.963Z,36.26
2017-06-15T14:30:41.274Z,36.36
2017-06-15T14:31:50.896Z,36.26
2017-06-15T14:33:01.145Z,36.63
2017-06-15T14:34:10.152Z,36.44
2017-06-15T14:35:20.759Z,36.54
2017-06-15T14:36:30.995Z,36.63
2017-06-15T14:37:41.262Z,36.63
2017-06-15T14:38:51.185Z,36.75
2017-06-15T14:40:00.809Z,36.63
2017-06-15T14:41:10.266Z,36.44
2017-06-15T14:42:20.505Z,36.63
2017-06-15T14:43:30.743Z,36.63
2017-06-15T14:44:40.055Z,36.73
2017-06-15T14:45:50.297Z,36.54
2017-06-15T14:47:00.069Z,36.73
2017-06-15T14:48:10.307Z,36.63
2017-06-15T14:49:20.550Z,36.63
2017-06-15T14:50:29.866Z,36.73
2017-06-15T14:51:39.480Z,36.73
2017-06-15T14:52:50.092Z,36.73
2017-06-15T14:54:00.031Z,36.83
2017-06-15T14:55:09.359Z,36.83
2017-06-15T14:56:19.286Z,37.02
2017-06-15T14:57:29.210Z,36.83
2017-06-15T14:58:38.629Z,37.02
2017-06-15T14:59:48.854Z,36.73
2017-06-15T15:00:58.777Z,36.93
2017-06-15T15:02:08.089Z,36.93
2017-06-15T15:03:17.718Z,37.02
2017-06-15T15:04:28.084Z,36.93
2017-06-15T15:05:37.716Z,36.83